createdAt,value
2018-04-12T00:00:50.139Z,96.51
2018-04-12T00:01:50.379Z,96.46
2018-04-12T00:02:50.620Z,96.03
2018-04-12T00:03:50.863Z,96.22
2018-04-12T00:04:51.103Z,96.22
2018-04-12T00:05:51.341Z,96.22
2018-04-12T00:06:51.583Z,96.03
2018-04-12T00:07:51.825Z,96.98
2018-04-12T00:08:52.063Z,96.89
2018-04-12T00:09:52.303Z,96.51
2018-04-12T00:10:52.544Z,96.60
2018-04-12T00:11:52.782Z,97.08
2018-04-12T00:12:53.020Z,97.27
2018-04-12T00:13:53.265Z,97.17
2018-04-12T00:14:53.501Z,97.27
2018-04-12T00:15:53.737Z,97.36
2018-04-12T00:16:53.977Z,97.17
2018-04-12T00:17:54.219Z,96.51
2018-04-12T00:18:54.458Z,96.98
2018-04-12T00:19:54.701Z,97.08
2018-04-12T00:20:54.941Z,96.51
2018-04-12T00:21:55.179Z,97.27
2018-04-12T00:22:55.416Z,97.13
2018-04-12T00:23:55.655Z,97.08
2018-04-12T00:24:55.899Z,97.13
2018-04-12T00:25:56.138Z,96.98
2018-04-12T00:26:56.377Z,97.41
2018-04-12T00:27:56.617Z,97.22
2018-04-12T00:28:56.855Z,97.41
2018-04-12T00:29:57.094Z,96.75
2018-04-12T00:30:57.331Z,96.65
2018-04-12T00:31:57.571Z,97.08
2018-04-12T00:32:57.811Z,97.27
2018-04-12T00:33:58.051Z,97.27
2018-04-12T00:34:58.290Z,96.98
2018-04-12T00:35:58.533Z,97.27
2018-04-12T00:36:58.772Z,97.32
2018-04-12T00:37:59.010Z,96.84
2018-04-12T00:38:59.250Z,97.27
2018-04-12T00:39:59.497Z,97.08
2018-04-12T00:40:59.731Z,96.89
2018-04-12T00:41:59.970Z,97.08
2018-04-12T00:43:00.210Z,97.17
2018-04-12T00:44:00.449Z,97.17
2018-04-12T00:45:00.690Z,97.27
2018-04-12T00:46:00.930Z,97.84
2018-04-12T00:47:01.170Z,97.27
2018-04-12T00:48:01.407Z,97.46
2018-04-12T00:49:01.650Z,97.27
2018-04-12T00:50:01.890Z,97.17
2018-04-12T00:51:02.128Z,98.13
2018-04-12T00:52:02.370Z,97.94
2018-04-12T00:53:02.607Z,97.36
2018-04-12T00:54:02.846Z,98.13
2018-04-12T00:55:03.086Z,98.51
2018-04-12T00:56:03.328Z,97.84
2018-04-12T00:57:03.569Z,98.22
2018-04-12T00:58:03.807Z,97.94
2018-04-12T00:59:04.049Z,98.13
2018-04-12T01:00:04.286Z,97.84
2018-04-12T01:01:04.528Z,98.32
2018-04-12T01:02:04.768Z,98.32
2018-04-12T01:03:05.009Z,98.22
2018-04-12T01:04:05.243Z,97.94
2018-04-12T01:05:05.489Z,98.32
2018-04-12T01:06:05.723Z,98.60
2018-04-12T01:07:05.964Z,98.70
2018-04-12T01:08:06.205Z,98.70
2018-04-12T01:09:06.445Z,98.70
2018-04-12T01:10:06.686Z,98.51
2018-04-12T01:11:06.925Z,98.32
2018-04-12T01:12:07.163Z,98.51
2018-04-12T01:13:07.405Z,98.70
2018-04-12T01:14:07.643Z,98.99
2018-04-12T01:15:07.883Z,98.99
2018-04-12T01:16:08.122Z,98.70
2018-04-12T01:17:08.367Z,98.70
2018-04-12T01:18:08.600Z,98.99
2018-04-12T01:19:08.842Z,99.18
2018-04-12T01:20:09.073Z,98.99
2018-04-12T01:21:09.315Z,98.99
2018-04-12T01:22:09.556Z,98.99
2018-04-12T01:23:09.795Z,99.08
2018-04-12T01:24:10.035Z,99.08
2018-04-12T01:25:10.275Z,98.79
2018-04-12T01:26:10.513Z,99.08
2018-04-12T01:27:10.754Z,98.99
2018-04-12T01:28:10.993Z,99.18
2018-04-12T01:29:11.233Z,98.99
2018-04-12T01:30:11.473Z,98.89
2018-04-12T01:31:11.710Z,98.99
2018-04-12T01:32:11.947Z,99.65
2018-04-12T01:33:12.194Z,98.89
2018-04-12T01:34:12.431Z,98.79
2018-04-12T01:35:12.676Z,98.99
2018-04-12T01:36:12.911Z,99.08
2018-04-12T01:37:13.152Z,98.89
2018-04-12T01:38:13.392Z,99.27
2018-04-12T01:39:13.631Z,99.37
2018-04-12T01:40:13.872Z,99.37
2018-04-12T01:41:14.111Z,99.65
2018-04-12T01:42:14.351Z,99.37
2018-04-12T01:43:14.591Z,99.46
2018-04-12T01:44:14.831Z,99.55
2018-04-12T01:45:15.070Z,99.55
2018-04-12T01:46:15.315Z,99.75
2018-04-12T01:47:15.549Z,99.75
2018-04-12T01:48:15.790Z,99.46
2018-04-12T01:49:16.028Z,99.18
2018-04-12T01:50:16.269Z,99.37
2018-04-12T01:51:16.508Z,99.46
2018-04-12T01:52:16.749Z,99.55
2018-04-12T01:53:17.023Z,99.55
2018-04-12T01:54:17.230Z,99.18
2018-04-12T01:55:17.469Z,99.27
2018-04-12T01:56:17.710Z,99.46
2018-04-12T01:57:17.950Z,99.55
2018-04-12T01:58:18.189Z,99.27
2018-04-12T01:59:18.430Z,99.55
2018-04-12T02:00:18.668Z,99.18
2018-04-12T02:01:18.906Z,99.18
2018-04-12T02:02:19.145Z,99.46
2018-04-12T02:03:19.387Z,99.55
2018-04-12T02:04:19.628Z,99.75
2018-04-12T02:05:19.869Z,99.55
2018-04-12T02:06:20.105Z,99.55
2018-04-12T02:07:20.353Z,99.51
2018-04-12T02:08:20.591Z,99.75
2018-04-12T02:09:20.828Z,99.41
2018-04-12T02:10:21.071Z,99.60
2018-04-12T02:11:21.311Z,99.27
2018-04-12T02:12:21.552Z,99.46
2018-04-12T02:13:21.797Z,99.84
2018-04-12T02:14:22.033Z,99.46
2018-04-12T02:15:22.274Z,99.46
2018-04-12T02:16:22.513Z,99.37
2018-04-12T02:17:22.756Z,99.37
2018-04-12T02:18:22.994Z,99.55
2018-04-12T02:19:23.233Z,99.75
2018-04-12T02:20:23.473Z,99.46
2018-04-12T02:21:23.715Z,99.60
2018-04-12T02:22:23.956Z,99.75
2018-04-12T02:23:24.194Z,99.69
2018-04-12T02:24:24.431Z,99.46
2018-04-12T02:25:24.674Z,99.46
2018-04-12T02:26:24.913Z,99.37
2018-04-12T02:27:25.148Z,99.41
2018-04-12T02:28:25.389Z,99.75
2018-04-12T02:29:25.649Z,99.46
2018-04-12T02:30:25.862Z,99.46
2018-04-12T02:31:26.108Z,99.37
2018-04-12T02:32:26.342Z,99.65
2018-04-12T02:33:26.581Z,99.46
2018-04-12T02:34:26.820Z,99.27
2018-04-12T02:35:27.061Z,99.37
2018-04-12T02:36:27.297Z,99.75
2018-04-12T02:37:27.539Z,99.32
2018-04-12T02:38:27.778Z,99.27
2018-04-12T02:39:28.022Z,99.41
2018-04-12T02:40:28.259Z,99.60
2018-04-12T02:41:28.499Z,99.41
2018-04-12T02:42:28.739Z,99.46
2018-04-12T02:43:28.980Z,99.46
2018-04-12T02:44:29.220Z,99.46
2018-04-12T02:45:29.459Z,99.32
2018-04-12T02:46:29.697Z,99.46
2018-04-12T02:47:29.938Z,99.55
2018-04-12T02:48:30.178Z,99.79
2018-04-12T02:49:30.418Z,99.37
2018-04-12T02:50:30.656Z,99.51
2018-04-12T02:51:30.897Z,99.46
2018-04-12T02:52:31.134Z,99.27
2018-04-12T02:53:31.372Z,99.60
2018-04-12T02:54:31.612Z,99.41
2018-04-12T02:55:31.851Z,99.22
2018-04-12T02:56:32.106Z,99.32
2018-04-12T02:57:32.326Z,99.32
2018-04-12T02:58:32.564Z,99.32
2018-04-12T02:59:32.803Z,99.79
2018-04-12T03:00:33.042Z,99.99
2018-04-12T03:01:33.285Z,99.99
2018-04-12T03:02:33.533Z,99.89
2018-04-12T03:03:33.771Z,99.60
2018-04-12T03:04:34.003Z,99.32
2018-04-12T03:05:34.242Z,99.41
2018-04-12T03:06:34.483Z,99.51
2018-04-12T03:07:34.724Z,99.60
2018-04-12T03:08:34.964Z,99.37
2018-04-12T03:09:35.205Z,99.27
2018-04-12T03:10:35.442Z,99.41
2018-04-12T03:11:35.682Z,99.46
2018-04-12T03:12:35.923Z,99.41
2018-04-12T03:13:36.162Z,99.55
2018-04-12T03:14:36.399Z,99.46
2018-04-12T03:15:36.638Z,99.46
2018-04-12T03:16:36.876Z,99.55
2018-04-12T03:17:37.116Z,99.46
2018-04-12T03:18:37.357Z,99.75
2018-04-12T03:19:37.597Z,99.55
2018-04-12T03:20:37.836Z,99.46
2018-04-12T03:21:38.081Z,99.46
2018-04-12T03:22:38.315Z,99.46
2018-04-12T03:23:38.558Z,99.55
2018-04-12T03:24:38.791Z,99.46
2018-04-12T03:25:39.038Z,99.08
2018-04-12T03:26:39.276Z,99.18
2018-04-12T03:27:39.517Z,98.79
2018-04-12T03:28:39.758Z,99.37
2018-04-12T03:29:39.995Z,99.27
2018-04-12T03:30:40.241Z,98.89
2018-04-12T03:31:40.479Z,99.27
2018-04-12T03:32:40.720Z,99.84
2018-04-12T03:33:40.959Z,99.27
2018-04-12T03:34:41.196Z,99.37
2018-04-12T03:35:41.448Z,99.18
2018-04-12T03:36:41.688Z,98.99
2018-04-12T03:37:41.923Z,99.75
2018-04-12T03:38:42.170Z,99.46
2018-04-12T03:39:42.401Z,99.46
2018-04-12T03:40:42.644Z,99.55
2018-04-12T03:41:42.869Z,99.55
2018-04-12T03:42:43.133Z,99.37
2018-04-12T03:43:43.370Z,99.37
2018-04-12T03:44:43.612Z,99.37
2018-04-12T03:45:43.851Z,98.89
2018-04-12T03:46:44.095Z,98.70
2018-04-12T03:47:44.334Z,99.08
2018-04-12T03:48:44.669Z,98.89
2018-04-12T03:49:44.857Z,98.99
2018-04-12T03:50:45.053Z,99.08
2018-04-12T03:51:45.293Z,99.08
2018-04-12T03:52:45.533Z,99.08
2018-04-12T03:53:45.775Z,98.89
2018-04-12T03:54:46.017Z,99.08
2018-04-12T03:55:46.253Z,98.89
2018-04-12T03:56:46.495Z,99.08
2018-04-12T03:57:46.735Z,98.41
2018-04-12T03:58:46.977Z,98.51
2018-04-12T03:59:47.211Z,98.51
2018-04-12T04:00:47.453Z,98.89
2018-04-12T04:01:47.740Z,98.79
2018-04-12T04:02:47.930Z,98.41
2018-04-12T04:03:48.170Z,99.08
2018-04-12T04:04:48.415Z,98.70
2018-04-12T04:05:48.650Z,99.08
2018-04-12T04:06:48.890Z,99.18
2018-04-12T04:07:49.132Z,98.70
2018-04-12T04:08:49.370Z,98.51
2018-04-12T04:09:49.611Z,98.70
2018-04-12T04:10:49.851Z,98.41
2018-04-12T04:11:50.089Z,98.51
2018-04-12T04:12:50.330Z,98.60
2018-04-12T04:13:50.569Z,98.89
2018-04-12T04:14:50.810Z,98.32
2018-04-12T04:15:51.050Z,98.32
2018-04-12T04:16:51.290Z,97.94
2018-04-12T04:17:51.530Z,98.13
2018-04-12T04:18:51.772Z,98.22
2018-04-12T04:19:52.015Z,98.03
2018-04-12T04:20:52.315Z,98.22
2018-04-12T04:21:52.493Z,98.13
2018-04-12T04:22:52.732Z,97.94
2018-04-12T04:23:52.978Z,98.32
2018-04-12T04:24:53.211Z,97.94
2018-04-12T04:25:53.450Z,98.60
2018-04-12T04:26:53.692Z,98.03
2018-04-12T04:27:53.932Z,97.94
2018-04-12T04:28:54.171Z,98.60
2018-04-12T04:29:54.422Z,98.70
2018-04-12T04:30:54.654Z,98.70
2018-04-12T04:31:54.895Z,98.51
2018-04-12T04:32:55.137Z,98.70
2018-04-12T04:33:55.378Z,98.70
2018-04-12T04:34:55.612Z,98.51
2018-04-12T04:35:55.853Z,98.70
2018-04-12T04:36:56.095Z,98.70
2018-04-12T04:37:56.334Z,98.41
2018-04-12T04:38:56.575Z,98.32
2018-04-12T04:39:56.823Z,98.32
2018-04-12T04:40:57.056Z,98.70
2018-04-12T04:41:57.296Z,98.70
2018-04-12T04:42:57.536Z,98.32
2018-04-12T04:43:57.780Z,97.94
2018-04-12T04:44:58.025Z,98.60
2018-04-12T04:45:58.261Z,98.32
2018-04-12T04:46:58.501Z,98.70
2018-04-12T04:47:58.743Z,98.41
2018-04-12T04:48:58.983Z,98.13
2018-04-12T04:49:59.222Z,98.13
2018-04-12T04:50:59.463Z,98.22
2018-04-12T04:51:59.704Z,98.22
2018-04-12T04:52:59.943Z,97.94
2018-04-12T04:54:00.185Z,97.94
2018-04-12T04:55:00.445Z,97.94
2018-04-12T04:56:00.663Z,97.94
2018-04-12T04:57:00.905Z,97.84
2018-04-12T04:58:01.142Z,97.84
2018-04-12T04:59:01.381Z,97.94
2018-04-12T05:00:01.622Z,97.94
2018-04-12T05:01:01.861Z,97.75
2018-04-12T05:02:02.103Z,98.13
2018-04-12T05:03:02.336Z,97.94
2018-04-12T05:04:02.574Z,97.65
2018-04-12T05:05:02.815Z,97.27
2018-04-12T05:06:03.082Z,97.36
2018-04-12T05:07:03.325Z,97.36
2018-04-12T05:08:03.567Z,97.08
2018-04-12T05:09:03.812Z,96.70
2018-04-12T05:10:04.049Z,96.98
2018-04-12T05:11:04.288Z,96.51
2018-04-12T05:12:04.526Z,96.60
2018-04-12T05:13:04.769Z,96.89
2018-04-12T05:14:05.011Z,96.12
2018-04-12T05:15:05.252Z,96.22
2018-04-12T05:16:05.488Z,96.60
2018-04-12T05:17:05.732Z,96.60
2018-04-12T05:18:05.972Z,96.32
2018-04-12T05:19:06.213Z,96.03
2018-04-12T05:20:06.454Z,96.32
2018-04-12T05:21:06.696Z,96.32
2018-04-12T05:22:06.937Z,96.03
2018-04-12T05:23:07.177Z,95.65
2018-04-12T05:24:07.416Z,95.70
2018-04-12T05:25:07.666Z,95.22
2018-04-12T05:26:07.898Z,94.84
2018-04-12T05:27:08.137Z,95.12
2018-04-12T05:28:08.374Z,94.93
2018-04-12T05:29:08.623Z,95.32
2018-04-12T05:30:08.857Z,95.41
2018-04-12T05:31:09.097Z,94.84
2018-04-12T05:32:09.337Z,95.12
2018-04-12T05:33:09.592Z,94.84
2018-04-12T05:34:09.818Z,95.12
2018-04-12T05:35:10.062Z,94.37
2018-04-12T05:36:10.298Z,95.12
2018-04-12T05:37:10.540Z,94.46
2018-04-12T05:38:10.786Z,94.27
2018-04-12T05:39:11.024Z,94.27
2018-04-12T05:40:11.267Z,93.88
2018-04-12T05:41:11.504Z,94.17
2018-04-12T05:42:11.746Z,93.98
2018-04-12T05:43:11.985Z,93.88
2018-04-12T05:44:12.227Z,94.17
2018-04-12T05:45:12.473Z,94.37
2018-04-12T05:46:12.713Z,93.98
2018-04-12T05:47:12.954Z,94.46
2018-04-12T05:48:13.194Z,94.17
2018-04-12T05:49:13.439Z,93.41
2018-04-12T05:50:13.676Z,93.70
2018-04-12T05:51:13.918Z,93.32
2018-04-12T05:52:14.161Z,93.60
2018-04-12T05:53:14.405Z,93.79
2018-04-12T05:54:14.645Z,93.41
2018-04-12T05:55:14.889Z,93.70
2018-04-12T05:56:15.134Z,93.88
2018-04-12T05:57:15.375Z,93.60
2018-04-12T05:58:15.615Z,93.88
2018-04-12T05:59:15.857Z,93.60
2018-04-12T06:00:16.102Z,93.51
2018-04-12T06:01:16.339Z,93.98
2018-04-12T06:02:16.574Z,94.08
2018-04-12T06:03:16.814Z,93.88
2018-04-12T06:04:17.060Z,94.37
2018-04-12T06:05:17.297Z,93.98
2018-04-12T06:06:17.538Z,94.37
2018-04-12T06:07:17.781Z,93.98
2018-04-12T06:08:18.021Z,93.88
2018-04-12T06:09:18.265Z,94.17
2018-04-12T06:10:18.503Z,94.27
2018-04-12T06:11:18.746Z,94.84
2018-04-12T06:12:18.987Z,94.65
2018-04-12T06:13:19.228Z,94.56
2018-04-12T06:14:19.472Z,93.98
2018-04-12T06:15:19.712Z,94.56
2018-04-12T06:16:19.954Z,94.27
2018-04-12T06:17:20.195Z,93.79
2018-04-12T06:18:20.439Z,93.79
2018-04-12T06:19:20.682Z,93.70
2018-04-12T06:20:20.920Z,93.51
2018-04-12T06:21:21.216Z,93.70
2018-04-12T06:22:21.408Z,92.93
2018-04-12T06:23:21.643Z,93.22
2018-04-12T06:24:21.885Z,92.79
2018-04-12T06:25:22.126Z,93.08
2018-04-12T06:26:22.367Z,92.03
2018-04-12T06:27:22.610Z,91.93
2018-04-12T06:28:22.858Z,92.88
2018-04-12T06:29:23.093Z,92.03
2018-04-12T06:30:23.335Z,92.03
2018-04-12T06:31:23.575Z,91.46
2018-04-12T06:32:23.815Z,91.27
2018-04-12T06:33:24.058Z,90.98
2018-04-12T06:34:24.297Z,90.98
2018-04-12T06:35:24.543Z,91.07
2018-04-12T06:36:24.784Z,91.27
2018-04-12T06:37:25.029Z,91.07
2018-04-12T06:38:25.266Z,91.27
2018-04-12T06:39:25.505Z,90.79
2018-04-12T06:40:25.749Z,90.69
2018-04-12T06:41:25.993Z,90.79
2018-04-12T06:42:26.234Z,90.55
2018-04-12T06:43:26.474Z,88.11
2018-04-12T06:44:26.714Z,86.05
2018-04-12T06:45:26.954Z,83.04
2018-04-12T06:46:27.198Z,82.12
2018-04-12T06:47:27.438Z,81.65
2018-04-12T06:48:27.684Z,79.64
2018-04-12T06:49:27.920Z,78.49
2018-04-12T06:50:28.163Z,78.43
2018-04-12T06:51:28.406Z,77.67
2018-04-12T06:52:28.650Z,77.19
2018-04-12T06:53:28.889Z,78.68
2018-04-12T06:54:29.135Z,79.44
2018-04-12T06:55:29.383Z,79.69
2018-04-12T06:56:29.626Z,80.55
2018-04-12T06:57:29.863Z,81.22
2018-04-12T06:58:30.109Z,81.13
2018-04-12T06:59:30.355Z,81.37
2018-04-12T07:00:30.597Z,82.42
2018-04-12T07:01:30.836Z,82.81
2018-04-12T07:02:31.079Z,83.18
2018-04-12T07:03:31.321Z,82.90
2018-04-12T07:04:31.564Z,82.67
2018-04-12T07:05:31.812Z,83.28
2018-04-12T07:06:32.054Z,83.09
2018-04-12T07:07:32.294Z,82.71
2018-04-12T07:08:32.537Z,82.42
2018-04-12T07:09:32.781Z,81.95
2018-04-12T07:10:33.025Z,80.93
2018-04-12T07:11:33.268Z,80.50
2018-04-12T07:12:33.514Z,80.55
2018-04-12T07:13:33.759Z,80.27
2018-04-12T07:14:34.000Z,79.25
2018-04-12T07:15:34.245Z,78.78
2018-04-12T07:16:34.486Z,78.78
2018-04-12T07:17:34.732Z,77.67
2018-04-12T07:18:34.976Z,76.71
2018-04-12T07:19:35.220Z,77.25
2018-04-12T07:20:35.466Z,77.63
2018-04-12T07:21:35.708Z,76.81
2018-04-12T07:22:35.953Z,76.71
2018-04-12T07:23:36.201Z,76.71
2018-04-12T07:24:36.442Z,77.15
2018-04-12T07:25:36.687Z,79.41
2018-04-12T07:26:36.928Z,81.18
2018-04-12T07:27:37.173Z,80.90
2018-04-12T07:28:37.416Z,81.37
2018-04-12T07:29:37.662Z,83.14
2018-04-12T07:30:37.906Z,83.72
2018-04-12T07:31:38.152Z,83.72
2018-04-12T07:32:38.396Z,83.43
2018-04-12T07:33:38.634Z,81.70
2018-04-12T07:34:38.878Z,78.30
2018-04-12T07:35:39.122Z,78.07
2018-04-12T07:36:39.365Z,77.44
2018-04-12T07:37:39.609Z,77.06
2018-04-12T07:38:39.850Z,76.39
2018-04-12T07:39:40.094Z,76.29
2018-04-12T07:40:40.343Z,77.11
2018-04-12T07:41:40.584Z,77.92
2018-04-12T07:42:40.823Z,76.77
2018-04-12T07:43:41.081Z,77.78
2018-04-12T07:44:41.311Z,78.64
2018-04-12T07:45:41.557Z,79.75
2018-04-12T07:46:41.801Z,79.94
2018-04-12T07:47:42.044Z,80.13
2018-04-12T07:48:42.288Z,80.13
2018-04-12T07:49:42.528Z,80.17
2018-04-12T07:50:42.774Z,79.50
2018-04-12T07:51:43.015Z,79.22
2018-04-12T07:52:43.254Z,76.18
2018-04-12T07:53:43.498Z,70.79
2018-04-12T07:54:43.741Z,69.13
2018-04-12T07:55:43.984Z,66.35
2018-04-12T07:56:44.231Z,66.49
2018-04-12T07:57:44.471Z,66.35
2018-04-12T07:58:44.714Z,67.15
2018-04-12T07:59:44.964Z,68.43
2018-04-12T08:00:45.213Z,66.74
2018-04-12T08:01:45.451Z,65.72
2018-04-12T08:02:45.697Z,63.64
2018-04-12T08:03:45.940Z,63.67
2018-04-12T08:04:46.187Z,60.66
2018-04-12T08:05:46.472Z,57.99
2018-04-12T08:06:46.674Z,57.47
2018-04-12T08:07:46.920Z,55.52
2018-04-12T08:08:47.165Z,58.06
2018-04-12T08:09:47.415Z,61.14
2018-04-12T08:10:47.662Z,61.94
2018-04-12T08:11:47.910Z,63.06
2018-04-12T08:12:48.163Z,63.35
2018-04-12T08:13:48.405Z,62.48
2018-04-12T08:14:48.653Z,64.22
2018-04-12T08:15:48.896Z,64.85
2018-04-12T08:16:49.144Z,64.85
2018-04-12T08:17:49.391Z,64.66
2018-04-12T08:18:49.639Z,63.16
2018-04-12T08:19:49.886Z,62.23
2018-04-12T08:20:50.132Z,61.14
2018-04-12T08:21:50.380Z,58.67
2018-04-12T08:22:50.627Z,57.32
2018-04-12T08:23:50.874Z,58.80
2018-04-12T08:24:51.125Z,58.92
2018-04-12T08:25:51.374Z,59.38
2018-04-12T08:26:51.622Z,60.18
2018-04-12T08:27:51.870Z,61.46
2018-04-12T08:28:52.151Z,60.56
2018-04-12T08:29:52.366Z,59.50
2018-04-12T08:30:52.618Z,58.06
2018-04-12T08:31:52.865Z,59.44
2018-04-12T08:32:53.110Z,60.53
2018-04-12T08:33:53.359Z,59.19
2018-04-12T08:34:53.607Z,58.64
2018-04-12T08:35:53.859Z,58.32
2018-04-12T08:36:54.109Z,59.34
2018-04-12T08:37:54.354Z,58.35
2018-04-12T08:38:54.606Z,56.22
2018-04-12T08:39:54.852Z,55.45
2018-04-12T08:40:55.103Z,54.94
2018-04-12T08:41:55.356Z,57.22
2018-04-12T08:42:55.602Z,58.28
2018-04-12T08:43:55.855Z,56.00
2018-04-12T08:44:56.099Z,54.32
2018-04-12T08:45:56.415Z,52.30
2018-04-12T08:46:56.596Z,53.74
2018-04-12T08:47:56.846Z,51.77
2018-04-12T08:48:57.095Z,49.77
2018-04-12T08:49:57.345Z,48.90
2018-04-12T08:50:57.592Z,49.02
2018-04-12T08:51:57.845Z,48.90
2018-04-12T08:52:58.097Z,48.25
2018-04-12T08:53:58.347Z,48.25
2018-04-12T08:54:58.597Z,49.00
2018-04-12T08:55:58.850Z,48.18
2018-04-12T08:56:59.104Z,47.22
2018-04-12T08:57:59.349Z,47.58
2018-04-12T08:58:59.602Z,47.29
2018-04-12T08:59:59.852Z,49.19
2018-04-12T09:01:00.103Z,47.99
2018-04-12T09:02:00.353Z,47.02
2018-04-12T09:03:00.605Z,46.56
2018-04-12T09:04:00.857Z,44.43
2018-04-12T09:05:01.108Z,44.56
2018-04-12T09:06:01.361Z,43.71
2018-04-12T09:07:01.614Z,43.13
2018-04-12T09:08:01.866Z,42.52
2018-04-12T09:09:02.115Z,45.42
2018-04-12T09:10:02.374Z,46.08
2018-04-12T09:11:02.621Z,46.56
2018-04-12T09:12:02.872Z,46.25
2018-04-12T09:13:03.126Z,45.31
2018-04-12T09:14:03.379Z,45.50
2018-04-12T09:15:03.633Z,46.25
2018-04-12T09:16:03.884Z,46.73
2018-04-12T09:17:04.141Z,45.96
2018-04-12T09:18:04.393Z,45.96
2018-04-12T09:19:04.648Z,45.86
2018-04-12T09:20:04.907Z,46.95
2018-04-12T09:21:05.155Z,45.89
2018-04-12T09:22:05.406Z,46.54
2018-04-12T09:23:05.661Z,47.41
2018-04-12T09:24:05.913Z,46.92
2018-04-12T09:25:06.167Z,45.48
2018-04-12T09:26:06.422Z,46.34
2018-04-12T09:27:06.676Z,46.90
2018-04-12T09:28:06.934Z,47.12
2018-04-12T09:29:07.184Z,45.96
2018-04-12T09:30:07.435Z,46.49
2018-04-12T09:31:07.691Z,48.52
2018-04-12T09:32:07.943Z,50.11
2018-04-12T09:33:08.196Z,50.76
2018-04-12T09:34:08.449Z,51.92
2018-04-12T09:35:08.705Z,53.96
2018-04-12T09:36:08.958Z,55.11
2018-04-12T09:37:09.211Z,55.59
2018-04-12T09:38:09.464Z,53.55
2018-04-12T09:39:09.717Z,50.32
2018-04-12T09:40:09.968Z,50.96
2018-04-12T09:41:10.222Z,49.22
2018-04-12T09:42:10.476Z,50.35
2018-04-12T09:43:10.726Z,48.44
2018-04-12T09:44:10.976Z,48.25
2018-04-12T09:45:11.230Z,47.29
2018-04-12T09:46:11.482Z,48.52
2018-04-12T09:47:11.736Z,49.48
2018-04-12T09:48:11.990Z,48.06
2018-04-12T09:49:12.255Z,47.29
2018-04-12T09:50:12.498Z,47.50
2018-04-12T09:51:12.751Z,47.29
2018-04-12T09:52:13.005Z,48.76
2018-04-12T09:53:13.260Z,47.89
2018-04-12T09:54:13.512Z,46.95
2018-04-12T09:55:13.767Z,45.54
2018-04-12T09:56:14.020Z,45.14
2018-04-12T09:57:14.273Z,45.14
2018-04-12T09:58:14.527Z,44.46
2018-04-12T09:59:14.782Z,45.50
2018-04-12T10:00:15.033Z,46.39
2018-04-12T10:01:15.288Z,44.79
2018-04-12T10:02:15.540Z,43.41
2018-04-12T10:03:15.796Z,43.49
2018-04-12T10:04:16.047Z,44.31
2018-04-12T10:05:16.302Z,43.78
2018-04-12T10:06:16.559Z,43.90
2018-04-12T10:07:16.808Z,44.48
2018-04-12T10:08:17.067Z,46.03
2018-04-12T10:09:17.316Z,45.08
2018-04-12T10:10:17.576Z,44.04
2018-04-12T10:11:17.828Z,42.57
2018-04-12T10:12:18.083Z,42.76
2018-04-12T10:13:18.335Z,42.25
2018-04-12T10:14:18.592Z,43.15
2018-04-12T10:15:18.851Z,42.28
2018-04-12T10:16:19.100Z,42.65
2018-04-12T10:17:19.358Z,42.37
2018-04-12T10:18:19.610Z,43.54
2018-04-12T10:19:19.868Z,42.57
2018-04-12T10:20:20.126Z,41.79
2018-04-12T10:21:20.379Z,41.14
2018-04-12T10:22:20.634Z,39.62
2018-04-12T10:23:20.889Z,40.67
2018-04-12T10:24:21.144Z,42.08
2018-04-12T10:25:21.400Z,42.59
2018-04-12T10:26:21.653Z,42.41
2018-04-12T10:27:21.899Z,41.42
2018-04-12T10:28:22.174Z,41.37
2018-04-12T10:29:22.429Z,40.67
2018-04-12T10:30:22.686Z,39.72
2018-04-12T10:31:22.943Z,41.06
2018-04-12T10:32:23.195Z,42.20
2018-04-12T10:33:23.452Z,43.24
2018-04-12T10:34:23.707Z,44.60
2018-04-12T10:35:23.963Z,43.32
2018-04-12T10:36:24.217Z,42.20
2018-04-12T10:37:24.475Z,41.64
2018-04-12T10:38:24.729Z,42.32
2018-04-12T10:39:24.986Z,40.44
2018-04-12T10:40:25.239Z,43.34
2018-04-12T10:41:25.494Z,43.29
2018-04-12T10:42:25.749Z,41.47
2018-04-12T10:43:26.005Z,40.89
2018-04-12T10:44:26.311Z,41.62
2018-04-12T10:45:26.519Z,42.51
2018-04-12T10:46:26.779Z,42.66
2018-04-12T10:47:27.029Z,41.64
2018-04-12T10:48:27.284Z,40.99
2018-04-12T10:49:27.540Z,39.57
2018-04-12T10:50:27.797Z,39.67
2018-04-12T10:51:28.050Z,38.12
2018-04-12T10:52:28.306Z,38.96
2018-04-12T10:53:28.560Z,38.52
2018-04-12T10:54:28.819Z,37.57
2018-04-12T10:55:29.071Z,37.30
2018-04-12T10:56:29.328Z,37.96
2018-04-12T10:57:29.585Z,37.71
2018-04-12T10:58:29.841Z,38.68
2018-04-12T10:59:30.097Z,38.96
2018-04-12T11:00:30.354Z,40.01
2018-04-12T11:01:30.612Z,38.89
2018-04-12T11:02:30.865Z,37.18
2018-04-12T11:03:31.124Z,37.30
2018-04-12T11:04:31.380Z,35.64
2018-04-12T11:05:31.636Z,34.30
2018-04-12T11:06:31.892Z,34.11
2018-04-12T11:07:32.152Z,35.68
2018-04-12T11:08:32.405Z,33.56
2018-04-12T11:09:32.663Z,34.03
2018-04-12T11:10:32.922Z,34.32
2018-04-12T11:11:33.178Z,33.58
2018-04-12T11:12:33.434Z,31.92
2018-04-12T11:13:33.690Z,32.97
2018-04-12T11:14:33.955Z,33.33
2018-04-12T11:15:34.206Z,34.20
2018-04-12T11:16:34.462Z,35.29
2018-04-12T11:17:34.733Z,34.01
2018-04-12T11:18:34.998Z,33.93
2018-04-12T11:19:35.250Z,33.56
2018-04-12T11:20:35.504Z,31.43
2018-04-12T11:21:35.769Z,33.93
2018-04-12T11:22:36.029Z,34.98
2018-04-12T11:23:36.284Z,33.93
2018-04-12T11:24:36.542Z,33.93
2018-04-12T11:25:36.826Z,33.93
2018-04-12T11:26:37.054Z,36.46
2018-04-12T11:27:37.315Z,35.45
2018-04-12T11:28:37.626Z,36.71
2018-04-12T11:29:37.832Z,36.93
2018-04-12T11:30:38.094Z,36.24
2018-04-12T11:31:38.345Z,35.55
2018-04-12T11:32:38.604Z,37.76
2018-04-12T11:33:38.860Z,37.76
2018-04-12T11:34:39.116Z,37.49
2018-04-12T11:35:39.375Z,35.66
2018-04-12T11:36:39.629Z,35.02
2018-04-12T11:37:39.890Z,33.67
2018-04-12T11:38:40.147Z,33.96
2018-04-12T11:39:40.405Z,34.32
2018-04-12T11:40:40.662Z,34.12
2018-04-12T11:41:40.918Z,31.84
2018-04-12T11:42:41.177Z,33.59
2018-04-12T11:43:41.432Z,33.38
2018-04-12T11:44:41.691Z,32.03
2018-04-12T11:45:41.950Z,32.70
2018-04-12T11:46:42.221Z,32.13
2018-04-12T11:47:42.464Z,30.81
2018-04-12T11:48:42.743Z,28.32
2018-04-12T11:49:43.012Z,29.00
2018-04-12T11:50:43.258Z,29.36
2018-04-12T11:51:43.518Z,28.99
2018-04-12T11:52:43.809Z,28.99
2018-04-12T11:53:44.071Z,28.49
2018-04-12T11:54:44.334Z,29.83
2018-04-12T11:55:44.589Z,29.17
2018-04-12T11:56:44.846Z,30.34
2018-04-12T11:57:45.109Z,27.06
2018-04-12T11:58:45.366Z,26.39
2018-04-12T11:59:45.625Z,26.50
2018-04-12T12:00:45.886Z,26.38
2018-04-12T12:01:46.144Z,27.94
2018-04-12T12:02:46.445Z,26.28
2018-04-12T12:03:46.706Z,26.49
2018-04-12T12:04:46.964Z,25.60
2018-04-12T12:05:47.223Z,28.22
2018-04-12T12:06:47.573Z,28.03
2018-04-12T12:07:47.949Z,26.84
2018-04-12T12:08:48.235Z,28.00
2018-04-12T12:09:48.543Z,28.28
2018-04-12T12:10:48.987Z,29.71
2018-04-12T12:11:49.303Z,31.06
2018-04-12T12:12:49.571Z,32.70
2018-04-12T12:13:49.867Z,33.69
2018-04-12T12:14:50.130Z,32.79
2018-04-12T12:15:50.391Z,33.81
2018-04-12T12:16:50.634Z,37.05
2018-04-12T12:17:50.909Z,36.93
2018-04-12T12:18:51.167Z,35.05
2018-04-12T12:19:51.431Z,37.65
2018-04-12T12:20:51.715Z,38.21
2018-04-12T12:21:51.971Z,36.61
2018-04-12T12:22:52.225Z,35.86
2018-04-12T12:23:52.621Z,34.53
2018-04-12T12:24:52.841Z,34.32
2018-04-12T12:25:53.097Z,34.98
2018-04-12T12:26:53.391Z,35.63
2018-04-12T12:27:53.655Z,36.27
2018-04-12T12:28:53.934Z,37.90
2018-04-12T12:29:54.161Z,38.76
2018-04-12T12:30:54.422Z,39.90
2018-04-12T12:31:54.682Z,40.09
2018-04-12T12:32:54.937Z,39.24
2018-04-12T12:33:55.194Z,40.36
2018-04-12T12:34:55.449Z,41.14
2018-04-12T12:35:55.710Z,42.59
2018-04-12T12:36:55.980Z,43.05
2018-04-12T12:37:56.293Z,43.41
2018-04-12T12:38:56.551Z,44.38
2018-04-12T12:39:56.810Z,43.32
2018-04-12T12:40:57.156Z,44.38
2018-04-12T12:41:57.380Z,44.13
2018-04-12T12:42:57.665Z,44.04
2018-04-12T12:43:57.944Z,42.57
2018-04-12T12:44:58.201Z,44.57
2018-04-12T12:45:58.457Z,46.49
2018-04-12T12:46:58.713Z,46.47
2018-04-12T12:47:58.968Z,45.50
2018-04-12T12:48:59.222Z,46.83
2018-04-12T12:49:59.476Z,46.73
2018-04-12T12:50:59.730Z,46.64
2018-04-12T12:51:59.984Z,47.31
2018-04-12T12:53:00.240Z,45.38
2018-04-12T12:54:00.496Z,47.14
2018-04-12T12:55:00.748Z,46.80
2018-04-12T12:56:01.103Z,45.95